createdAt,value
2017-01-20T00:00:08.494Z,57.29
2017-01-20T00:00:34.597Z,57.39
2017-01-20T00:01:00.690Z,57.48
2017-01-20T00:01:26.817Z,58.05
2017-01-20T00:01:52.923Z,57.39
2017-01-20T00:02:19.018Z,57.01
2017-01-20T00:02:45.115Z,57.01
2017-01-20T00:03:11.208Z,56.63
2017-01-20T00:03:37.316Z,56.91
2017-01-20T00:04:03.413Z,57.2
2017-01-20T00:04:29.501Z,57.29
2017-01-20T00:04:55.605Z,57.1
2017-01-20T00:05:21.714Z,57.1
2017-01-20T00:05:47.803Z,57.1
2017-01-20T00:06:13.893Z,57.39
2017-01-20T00:06:40.007Z,57.2
2017-01-20T00:07:06.095Z,57.57
2017-01-20T00:07:32.194Z,57.2
2017-01-20T00:07:58.298Z,57.1
2017-01-20T00:08:24.387Z,57.2
2017-01-20T00:08:50.480Z,57.29
2017-01-20T00:09:16.590Z,57.48
2017-01-20T00:09:42.685Z,57.29
2017-01-20T00:10:08.775Z,57.1
2017-01-20T00:10:34.882Z,57.39
2017-01-20T00:11:00.992Z,57.2
2017-01-20T00:11:27.134Z,57.86
2017-01-20T00:11:53.283Z,57.57
2017-01-20T00:12:19.414Z,57.95
2017-01-20T00:12:45.506Z,57.86
2017-01-20T00:13:11.604Z,57.86
2017-01-20T00:13:37.697Z,57.57
2017-01-20T00:14:03.941Z,57.86
2017-01-20T00:14:30.042Z,58.05
2017-01-20T00:14:56.151Z,58.05
2017-01-20T00:15:22.258Z,58.24
2017-01-20T00:15:48.360Z,58.14
2017-01-20T00:16:14.452Z,59
2017-01-20T00:16:40.551Z,58.9
2017-01-20T00:17:06.659Z,59.47
2017-01-20T00:17:32.750Z,58.52
2017-01-20T00:17:58.845Z,58.71
2017-01-20T00:18:24.968Z,58.62
2017-01-20T00:18:51.066Z,57.95
2017-01-20T00:19:17.176Z,58.05
2017-01-20T00:19:43.258Z,58.14
2017-01-20T00:20:09.359Z,57.86
2017-01-20T00:20:35.472Z,58.52
2017-01-20T00:21:01.559Z,57.95
2017-01-20T00:21:27.706Z,58.05
2017-01-20T00:21:53.816Z,58.05
2017-01-20T00:22:19.911Z,58.52
2017-01-20T00:22:45.997Z,58.14
2017-01-20T00:23:12.110Z,58.14
2017-01-20T00:23:38.207Z,57.86
2017-01-20T00:24:04.303Z,58.24
2017-01-20T00:24:30.410Z,58.14
2017-01-20T00:24:56.505Z,58.05
2017-01-20T00:25:22.617Z,58.05
2017-01-20T00:25:48.710Z,57.86
2017-01-20T00:26:14.798Z,57.95
2017-01-20T00:26:40.910Z,58.52
2017-01-20T00:27:07.006Z,58.33
2017-01-20T00:27:33.094Z,58.05
2017-01-20T00:27:59.203Z,57.86
2017-01-20T00:28:25.655Z,58.71
2017-01-20T00:28:51.744Z,58.81
2017-01-20T00:29:17.849Z,58.81
2017-01-20T00:29:43.951Z,58.81
2017-01-20T00:30:10.051Z,58.71
2017-01-20T00:30:36.148Z,58.71
2017-01-20T00:31:02.237Z,59
2017-01-20T00:31:28.346Z,58.43
2017-01-20T00:31:54.446Z,58.24
2017-01-20T00:32:20.540Z,58.14
2017-01-20T00:32:46.643Z,58.24
2017-01-20T00:33:12.749Z,57.95
2017-01-20T00:33:38.833Z,58.33
2017-01-20T00:34:04.931Z,58.14
2017-01-20T00:34:31.044Z,58.05
2017-01-20T00:34:57.129Z,58.24
2017-01-20T00:35:23.226Z,58.81
2017-01-20T00:35:49.322Z,59.19
2017-01-20T00:36:15.430Z,58.81
2017-01-20T00:36:41.539Z,58.81
2017-01-20T00:37:07.627Z,58.9
2017-01-20T00:37:33.725Z,58.9
2017-01-20T00:37:59.826Z,58.9
2017-01-20T00:38:25.921Z,59.28
2017-01-20T00:38:52.017Z,59.19
2017-01-20T00:39:18.130Z,59.28
2017-01-20T00:39:44.219Z,59.94
2017-01-20T00:40:10.305Z,59.66
2017-01-20T00:40:36.419Z,59.75
2017-01-20T00:41:02.520Z,59.75
2017-01-20T00:41:28.626Z,59.84
2017-01-20T00:41:54.713Z,59.28
2017-01-20T00:42:20.809Z,59.19
2017-01-20T00:42:46.917Z,59
2017-01-20T00:43:13.009Z,58.81
2017-01-20T00:43:39.104Z,59.09
2017-01-20T00:44:05.213Z,59.19
2017-01-20T00:44:31.315Z,59.47
2017-01-20T00:44:57.399Z,59.84
2017-01-20T00:45:23.507Z,59.75
2017-01-20T00:45:49.605Z,59.38
2017-01-20T00:46:15.694Z,59.56
2017-01-20T00:46:41.798Z,59.28
2017-01-20T00:47:07.884Z,59.56
2017-01-20T00:47:33.999Z,59.56
2017-01-20T00:48:00.099Z,59.56
2017-01-20T00:48:26.188Z,59.66
2017-01-20T00:48:52.291Z,59.47
2017-01-20T00:49:18.390Z,60.13
2017-01-20T00:49:44.483Z,59.94
2017-01-20T00:50:10.588Z,60.13
2017-01-20T00:50:36.695Z,60.41
2017-01-20T00:51:02.780Z,60.61
2017-01-20T00:51:28.877Z,59.94
2017-01-20T00:51:54.986Z,59.28
2017-01-20T00:52:21.075Z,59.28
2017-01-20T00:52:47.173Z,59.84
2017-01-20T00:53:13.284Z,59.56
2017-01-20T00:53:39.375Z,59.75
2017-01-20T00:54:05.467Z,60.41
2017-01-20T00:54:31.576Z,60.22
2017-01-20T00:54:57.672Z,60.13
2017-01-20T00:55:23.766Z,60.13
2017-01-20T00:55:49.871Z,60.41
2017-01-20T00:56:15.973Z,60.22
2017-01-20T00:56:42.067Z,60.13
2017-01-20T00:57:08.174Z,60.51
2017-01-20T00:57:34.275Z,59.66
2017-01-20T00:58:00.372Z,59.56
2017-01-20T00:58:26.470Z,59.56
2017-01-20T00:58:52.556Z,59.66
2017-01-20T00:59:18.666Z,59.47
2017-01-20T00:59:44.766Z,60.51
2017-01-20T01:00:10.860Z,60.51
2017-01-20T01:00:36.960Z,60.22
2017-01-20T01:01:03.065Z,60.22
2017-01-20T01:01:29.154Z,59.75
2017-01-20T01:01:55.249Z,59.47
2017-01-20T01:02:21.350Z,59.66
2017-01-20T01:02:47.441Z,59.75
2017-01-20T01:03:13.542Z,59.38
2017-01-20T01:03:39.635Z,59.38
2017-01-20T01:04:05.740Z,59.84
2017-01-20T01:04:31.852Z,59.84
2017-01-20T01:04:57.937Z,59.09
2017-01-20T01:05:24.042Z,59.28
2017-01-20T01:05:50.147Z,59.28
2017-01-20T01:06:16.263Z,59
2017-01-20T01:06:42.355Z,59.56
2017-01-20T01:07:08.459Z,59.47
2017-01-20T01:07:34.560Z,59.56
2017-01-20T01:08:00.657Z,59.84
2017-01-20T01:08:26.771Z,59.75
2017-01-20T01:08:52.864Z,59.56
2017-01-20T01:09:18.971Z,59.56
2017-01-20T01:09:45.060Z,59.28
2017-01-20T01:10:11.155Z,59.47
2017-01-20T01:10:37.264Z,59.94
2017-01-20T01:11:03.358Z,59.47
2017-01-20T01:11:29.450Z,59
2017-01-20T01:11:55.557Z,59.47
2017-01-20T01:12:21.654Z,59.75
2017-01-20T01:12:47.745Z,59.75
2017-01-20T01:13:13.858Z,59.47
2017-01-20T01:13:39.949Z,59.66
2017-01-20T01:14:06.041Z,59.66
2017-01-20T01:14:32.146Z,60.03
2017-01-20T01:14:58.236Z,59.66
2017-01-20T01:15:24.346Z,60.51
2017-01-20T01:15:50.446Z,60.22
2017-01-20T01:16:16.541Z,60.22
2017-01-20T01:16:42.644Z,60.7
2017-01-20T01:17:08.744Z,60.22
2017-01-20T01:17:34.836Z,60.22
2017-01-20T01:18:00.939Z,59.94
2017-01-20T01:18:27.042Z,59.75
2017-01-20T01:18:53.128Z,59.56
2017-01-20T01:19:19.230Z,60.03
2017-01-20T01:19:45.336Z,60.32
2017-01-20T01:20:11.422Z,60.51
2017-01-20T01:20:37.523Z,60.41
2017-01-20T01:21:03.615Z,60.51
2017-01-20T01:21:29.719Z,60.22
2017-01-20T01:21:55.826Z,60.61
2017-01-20T01:22:21.944Z,60.22
2017-01-20T01:22:48.045Z,60.19
2017-01-20T01:23:14.146Z,60.29
2017-01-20T01:23:40.240Z,60.48
2017-01-20T01:24:06.340Z,60.19
2017-01-20T01:24:32.449Z,60.29
2017-01-20T01:24:58.535Z,60.19
2017-01-20T01:25:24.621Z,60.29
2017-01-20T01:25:50.728Z,60.1
2017-01-20T01:26:16.835Z,60.29
2017-01-20T01:26:42.938Z,60.1
2017-01-20T01:27:09.029Z,60.29
2017-01-20T01:27:35.127Z,60.58
2017-01-20T01:28:01.236Z,60.77
2017-01-20T01:28:27.356Z,60.96
2017-01-20T01:28:53.449Z,60.67
2017-01-20T01:29:19.557Z,60.61
2017-01-20T01:29:45.647Z,61.05
2017-01-20T01:30:11.737Z,61.33
2017-01-20T01:30:37.847Z,61.33
2017-01-20T01:31:03.953Z,61.52
2017-01-20T01:31:30.049Z,61.24
2017-01-20T01:31:56.143Z,60.86
2017-01-20T01:32:22.237Z,61.24
2017-01-20T01:32:48.348Z,61.18
2017-01-20T01:33:14.444Z,60.99
2017-01-20T01:33:40.532Z,60.67
2017-01-20T01:34:06.640Z,60.32
2017-01-20T01:34:32.739Z,60.03
2017-01-20T01:34:58.833Z,60.61
2017-01-20T01:35:24.937Z,60.48
2017-01-20T01:35:51.047Z,61.15
2017-01-20T01:36:17.128Z,61.05
2017-01-20T01:36:43.227Z,61.24
2017-01-20T01:37:09.340Z,61.33
2017-01-20T01:37:35.427Z,61.33
2017-01-20T01:38:01.524Z,61.24
2017-01-20T01:38:27.635Z,61.52
2017-01-20T01:38:53.729Z,61.61
2017-01-20T01:39:19.812Z,61.33
2017-01-20T01:39:45.922Z,61.71
2017-01-20T01:40:12.023Z,61.9
2017-01-20T01:40:38.115Z,61.43
2017-01-20T01:41:04.223Z,61.33
2017-01-20T01:41:30.324Z,61.33
2017-01-20T01:41:56.407Z,61.33
2017-01-20T01:42:22.512Z,61.43
2017-01-20T01:42:48.604Z,61.71
2017-01-20T01:43:14.718Z,61.52
2017-01-20T01:43:40.808Z,61.24
2017-01-20T01:44:06.895Z,60.86
2017-01-20T01:44:33.004Z,60.67
2017-01-20T01:44:59.099Z,60.29
2017-01-20T01:45:25.189Z,60.67
2017-01-20T01:45:51.288Z,60.67
2017-01-20T01:46:17.390Z,60.86
2017-01-20T01:46:43.477Z,60.96
2017-01-20T01:47:09.579Z,61.52
2017-01-20T01:47:35.686Z,61.52
2017-01-20T01:48:01.779Z,61.33
2017-01-20T01:48:27.869Z,61.15
2017-01-20T01:48:53.961Z,61.15
2017-01-20T01:49:20.069Z,60.86
2017-01-20T01:49:46.180Z,60.48
2017-01-20T01:50:12.267Z,60.67
2017-01-20T01:50:38.366Z,60.67
2017-01-20T01:51:04.475Z,60.96
2017-01-20T01:51:30.567Z,61.33
2017-01-20T01:51:56.667Z,61.43
2017-01-20T01:52:22.770Z,61.33
2017-01-20T01:52:48.869Z,61.33
2017-01-20T01:53:14.955Z,61.43
2017-01-20T01:53:41.061Z,61.52
2017-01-20T01:54:07.166Z,61.52
2017-01-20T01:54:33.271Z,61.24
2017-01-20T01:54:59.364Z,61.43
2017-01-20T01:55:25.460Z,61.52
2017-01-20T01:55:51.564Z,61.33
2017-01-20T01:56:17.684Z,61.8
2017-01-20T01:56:43.776Z,62.28
2017-01-20T01:57:09.883Z,62.18
2017-01-20T01:57:35.979Z,61.9
2017-01-20T01:58:02.068Z,61.43
2017-01-20T01:58:28.180Z,61.33
2017-01-20T01:58:54.281Z,61.52
2017-01-20T01:59:20.383Z,61.71
2017-01-20T01:59:46.469Z,61.33
2017-01-20T02:00:12.560Z,61.15
2017-01-20T02:00:38.673Z,60.86
2017-01-20T02:01:04.772Z,60.77
2017-01-20T02:01:30.866Z,60.48
2017-01-20T02:01:56.969Z,60.67
2017-01-20T02:02:23.070Z,60.96
2017-01-20T02:02:49.156Z,60.86
2017-01-20T02:03:15.265Z,60.86
2017-01-20T02:03:41.374Z,60.58
2017-01-20T02:04:07.461Z,60.38
2017-01-20T02:04:33.562Z,60.19
2017-01-20T02:04:59.654Z,60.38
2017-01-20T02:05:25.763Z,60.86
2017-01-20T02:05:51.863Z,60.86
2017-01-20T02:06:17.957Z,60.96
2017-01-20T02:06:44.057Z,61.15
2017-01-20T02:07:10.158Z,60.58
2017-01-20T02:07:36.247Z,60.29
2017-01-20T02:08:02.348Z,60.58
2017-01-20T02:08:28.456Z,60.19
2017-01-20T02:08:54.545Z,60.67
2017-01-20T02:09:20.638Z,61.05
2017-01-20T02:09:46.746Z,60.58
2017-01-20T02:10:12.835Z,60.58
2017-01-20T02:10:38.944Z,60.77
2017-01-20T02:11:05.027Z,61.33
2017-01-20T02:11:31.125Z,60.67
2017-01-20T02:11:57.233Z,60.67
2017-01-20T02:12:23.326Z,60.48
2017-01-20T02:12:49.426Z,60.67
2017-01-20T02:13:15.527Z,60.48
2017-01-20T02:13:41.625Z,60.77
2017-01-20T02:14:07.712Z,60.58
2017-01-20T02:14:33.821Z,60.48
2017-01-20T02:14:59.920Z,60.48
2017-01-20T02:15:26.003Z,59.91
2017-01-20T02:15:52.112Z,59.63
2017-01-20T02:16:18.197Z,59.72
2017-01-20T02:16:44.311Z,59.53
2017-01-20T02:17:10.405Z,59.53
2017-01-20T02:17:36.497Z,59.81
2017-01-20T02:18:02.603Z,59.81
2017-01-20T02:18:28.694Z,59.81
2017-01-20T02:18:54.786Z,59.81
2017-01-20T02:19:20.894Z,59.53
2017-01-20T02:19:46.999Z,59.72
2017-01-20T02:20:13.081Z,59.53
2017-01-20T02:20:39.188Z,59.63
2017-01-20T02:21:05.294Z,59.63
2017-01-20T02:21:31.378Z,59.72
2017-01-20T02:21:57.483Z,59.81
2017-01-20T02:22:23.593Z,59.81
2017-01-20T02:22:49.683Z,59.44
2017-01-20T02:23:15.777Z,59.72
2017-01-20T02:23:41.881Z,59.63
2017-01-20T02:24:07.981Z,60.1
2017-01-20T02:24:34.068Z,60.48
2017-01-20T02:25:00.176Z,60.38
2017-01-20T02:25:26.269Z,60.38
2017-01-20T02:25:52.362Z,60.96
2017-01-20T02:26:18.489Z,60.58
2017-01-20T02:26:44.591Z,60.19
2017-01-20T02:27:10.719Z,60.19
2017-01-20T02:27:36.813Z,60.48
2017-01-20T02:28:02.900Z,60.38
2017-01-20T02:28:29.011Z,60.48
2017-01-20T02:28:55.110Z,60.38
2017-01-20T02:29:21.199Z,60.38
2017-01-20T02:29:47.305Z,60.38
2017-01-20T02:30:13.434Z,60.38
2017-01-20T02:30:39.527Z,60.19
2017-01-20T02:31:05.627Z,60.48
2017-01-20T02:31:31.732Z,60.67
2017-01-20T02:31:57.825Z,61.33
2017-01-20T02:32:23.923Z,60.48
2017-01-20T02:32:50.019Z,60
2017-01-20T02:33:16.128Z,60.1
2017-01-20T02:33:42.231Z,60.67
2017-01-20T02:34:08.317Z,60.38
2017-01-20T02:34:34.425Z,60.1
2017-01-20T02:35:00.526Z,60.38
2017-01-20T02:35:26.612Z,60.38
2017-01-20T02:35:52.714Z,60.48
2017-01-20T02:36:18.819Z,60.86
2017-01-20T02:36:44.912Z,60.67
2017-01-20T02:37:11.013Z,60.48
2017-01-20T02:37:37.120Z,60.58
2017-01-20T02:38:03.211Z,60.38
2017-01-20T02:38:29.322Z,60.19
2017-01-20T02:38:55.408Z,60.38
2017-01-20T02:39:21.499Z,60.67
2017-01-20T02:39:47.608Z,60.58
2017-01-20T02:40:13.701Z,60.67
2017-01-20T02:40:39.802Z,60.19
2017-01-20T02:41:05.902Z,60.58
2017-01-20T02:41:31.994Z,60.29
2017-01-20T02:41:58.101Z,60.48
2017-01-20T02:42:24.214Z,60.38
2017-01-20T02:42:50.313Z,60.48
2017-01-20T02:43:16.407Z,60.86
2017-01-20T02:43:42.514Z,60.67
2017-01-20T02:44:08.609Z,60.77
2017-01-20T02:44:34.721Z,60.48
2017-01-20T02:45:00.820Z,60.38
2017-01-20T02:45:26.902Z,60.19
2017-01-20T02:45:53.010Z,60.48
2017-01-20T02:46:19.099Z,60.48
2017-01-20T02:46:45.193Z,60.1
2017-01-20T02:47:11.295Z,60.38
2017-01-20T02:47:37.393Z,60.38
2017-01-20T02:48:03.483Z,60.48
2017-01-20T02:48:29.591Z,59.72
2017-01-20T02:48:55.700Z,59.72
2017-01-20T02:49:21.790Z,59.72
2017-01-20T02:49:47.891Z,60.19
2017-01-20T02:50:13.978Z,60.38
2017-01-20T02:50:40.081Z,61.15
2017-01-20T02:51:06.213Z,61.33
2017-01-20T02:51:32.308Z,61.15
2017-01-20T02:51:58.403Z,60.96
2017-01-20T02:52:24.803Z,60.86
2017-01-20T02:52:51.269Z,60.58
2017-01-20T02:53:17.365Z,60.48
2017-01-20T02:53:43.474Z,60.19
2017-01-20T02:54:09.561Z,60.19
2017-01-20T02:54:35.656Z,60
2017-01-20T02:55:01.754Z,60.1
2017-01-20T02:55:27.860Z,60.38
2017-01-20T02:55:53.963Z,60.48
2017-01-20T02:56:20.049Z,60.29
2017-01-20T02:56:46.146Z,60.29
2017-01-20T02:57:12.252Z,60.1
2017-01-20T02:57:38.341Z,60.29
2017-01-20T02:58:04.440Z,60.38
2017-01-20T02:58:30.544Z,60.1
2017-01-20T02:58:56.635Z,60.19
2017-01-20T02:59:22.724Z,60.29
2017-01-20T02:59:48.840Z,60.29
2017-01-20T03:00:14.936Z,60.58
2017-01-20T03:00:41.035Z,60.48
2017-01-20T03:01:07.121Z,60.58
2017-01-20T03:01:33.220Z,60.67
2017-01-20T03:01:59.320Z,60.77
2017-01-20T03:02:25.410Z,60.48
2017-01-20T03:02:51.497Z,60.48
2017-01-20T03:03:17.605Z,60.1
2017-01-20T03:03:43.696Z,60.58
2017-01-20T03:04:09.791Z,60.67
2017-01-20T03:04:35.896Z,60.58
2017-01-20T03:05:02.000Z,60.29
2017-01-20T03:05:28.084Z,59.53
2017-01-20T03:05:54.185Z,58.68
2017-01-20T03:06:20.297Z,57.92
2017-01-20T03:06:46.377Z,58.4
2017-01-20T03:07:12.479Z,58.4
2017-01-20T03:07:38.586Z,58.4
2017-01-20T03:08:04.670Z,58.59
2017-01-20T03:08:30.764Z,58.97
2017-01-20T03:08:56.865Z,58.87
2017-01-20T03:09:22.965Z,59.34
2017-01-20T03:09:49.056Z,60
2017-01-20T03:10:15.165Z,60.48
2017-01-20T03:10:41.261Z,60.1
2017-01-20T03:11:07.344Z,59.72
2017-01-20T03:11:33.456Z,60
2017-01-20T03:11:59.548Z,60
2017-01-20T03:12:25.650Z,59.72
2017-01-20T03:12:51.740Z,59.72
2017-01-20T03:13:17.831Z,59.53
2017-01-20T03:13:43.945Z,59.72
2017-01-20T03:14:10.040Z,58.87
2017-01-20T03:14:36.128Z,59.06
2017-01-20T03:15:02.235Z,59.16
2017-01-20T03:15:28.333Z,58.4
2017-01-20T03:15:54.420Z,58.78
2017-01-20T03:16:20.525Z,59.72
2017-01-20T03:16:46.636Z,59.53
2017-01-20T03:17:12.726Z,60.38
2017-01-20T03:17:38.821Z,60.1
2017-01-20T03:18:04.923Z,60.29
2017-01-20T03:18:31.020Z,60.38
2017-01-20T03:18:57.119Z,60.1
2017-01-20T03:19:23.205Z,60.29
2017-01-20T03:19:49.308Z,59.63
2017-01-20T03:20:15.411Z,59.81
2017-01-20T03:20:41.501Z,59.44
2017-01-20T03:21:07.603Z,59.81
2017-01-20T03:21:33.707Z,59.72
2017-01-20T03:21:59.798Z,59.06
2017-01-20T03:22:25.891Z,59.34
2017-01-20T03:22:51.988Z,59.72
2017-01-20T03:23:18.088Z,59.44
2017-01-20T03:23:44.194Z,59.53
2017-01-20T03:24:10.285Z,59.72
2017-01-20T03:24:36.381Z,58.97
2017-01-20T03:25:02.491Z,58.87
2017-01-20T03:25:28.583Z,58.68
2017-01-20T03:25:54.684Z,59.34
2017-01-20T03:26:20.784Z,59.63
2017-01-20T03:26:46.877Z,59.81
2017-01-20T03:27:12.964Z,59.91
2017-01-20T03:27:39.076Z,60
2017-01-20T03:28:05.176Z,60.48
2017-01-20T03:28:31.272Z,60.58
2017-01-20T03:28:57.365Z,60.38
2017-01-20T03:29:23.463Z,60.38
2017-01-20T03:29:49.569Z,60.19
2017-01-20T03:30:15.661Z,59.53
2017-01-20T03:30:41.745Z,59.16
2017-01-20T03:31:07.857Z,59.81
2017-01-20T03:31:33.955Z,59.34
2017-01-20T03:32:00.043Z,59.25
2017-01-20T03:32:26.156Z,59.16
2017-01-20T03:32:52.257Z,58.87
2017-01-20T03:33:18.339Z,58.87
2017-01-20T03:33:44.444Z,58.78
2017-01-20T03:34:10.539Z,59.16
2017-01-20T03:34:36.646Z,59.06
2017-01-20T03:35:02.743Z,59.72
2017-01-20T03:35:28.856Z,59.53
2017-01-20T03:35:54.966Z,59.16
2017-01-20T03:36:21.068Z,59.25
2017-01-20T03:36:47.155Z,59.06
2017-01-20T03:37:13.255Z,58.97
2017-01-20T03:37:39.361Z,59.06
2017-01-20T03:38:05.459Z,59.25
2017-01-20T03:38:31.550Z,59.72
2017-01-20T03:38:57.659Z,59.44
2017-01-20T03:39:23.758Z,59.44
2017-01-20T03:39:49.850Z,59.53
2017-01-20T03:40:15.961Z,59.81
2017-01-20T03:40:42.052Z,59.34
2017-01-20T03:41:08.140Z,59.53
2017-01-20T03:41:34.248Z,59.63
2017-01-20T03:42:00.347Z,60
2017-01-20T03:42:26.436Z,59.63
2017-01-20T03:42:52.547Z,59.63
2017-01-20T03:43:18.647Z,59.81
2017-01-20T03:43:44.737Z,60
2017-01-20T03:44:10.837Z,59.63
2017-01-20T03:44:36.943Z,59.81
2017-01-20T03:45:03.038Z,59.91
2017-01-20T03:45:29.135Z,59.63
2017-01-20T03:45:55.220Z,59.91
2017-01-20T03:46:21.324Z,59.72
2017-01-20T03:46:47.424Z,60.38
2017-01-20T03:47:13.517Z,60.38
2017-01-20T03:47:39.623Z,59.53
2017-01-20T03:48:05.743Z,60.38
2017-01-20T03:48:31.815Z,60.67
2017-01-20T03:48:57.918Z,60.67
2017-01-20T03:49:24.024Z,60.51
2017-01-20T03:49:50.115Z,60.58
2017-01-20T03:50:16.212Z,60.61
2017-01-20T03:50:42.317Z,60.19
2017-01-20T03:51:08.411Z,60.13
2017-01-20T03:51:34.504Z,60.38
2017-01-20T03:52:00.611Z,60.61
2017-01-20T03:52:26.707Z,60.13
2017-01-20T03:52:52.795Z,60.51
2017-01-20T03:53:18.897Z,60.58
2017-01-20T03:53:45.001Z,60.41
2017-01-20T03:54:11.088Z,60.99
2017-01-20T03:54:37.191Z,61.18
2017-01-20T03:55:03.292Z,61.08
2017-01-20T03:55:29.384Z,60.89
2017-01-20T03:55:55.483Z,60.51
2017-01-20T03:56:21.572Z,60.7
2017-01-20T03:56:47.673Z,60.89
2017-01-20T03:57:13.775Z,60.99
2017-01-20T03:57:39.864Z,61.08
2017-01-20T03:58:05.968Z,60.7
2017-01-20T03:58:32.076Z,60.51
2017-01-20T03:58:58.167Z,60.7
2017-01-20T03:59:24.259Z,60.7
2017-01-20T03:59:50.367Z,60.32
2017-01-20T04:00:16.480Z,60.38
2017-01-20T04:00:42.579Z,61.15
2017-01-20T04:01:08.682Z,60.86
2017-01-20T04:01:34.774Z,60.58
2017-01-20T04:02:00.884Z,60.67
2017-01-20T04:02:26.969Z,60.48
2017-01-20T04:02:53.064Z,60.67
2017-01-20T04:03:19.168Z,60.67
2017-01-20T04:03:45.263Z,61.33
2017-01-20T04:04:11.362Z,61.9
2017-01-20T04:04:37.472Z,61.15
2017-01-20T04:05:03.560Z,61.05
2017-01-20T04:05:29.649Z,61.43
2017-01-20T04:05:55.760Z,61.33
2017-01-20T04:06:21.861Z,60.96
2017-01-20T04:06:47.955Z,60.96
2017-01-20T04:07:14.054Z,60.58
2017-01-20T04:07:40.148Z,61.15
2017-01-20T04:08:06.256Z,60.67
2017-01-20T04:08:32.356Z,60.96
2017-01-20T04:08:58.445Z,61.15
2017-01-20T04:09:24.548Z,60.96
2017-01-20T04:09:50.646Z,60.89
2017-01-20T04:10:16.735Z,61.08
2017-01-20T04:10:42.845Z,61.27
2017-01-20T04:11:08.947Z,61.18
2017-01-20T04:11:35.041Z,61.36
2017-01-20T04:12:01.143Z,61.55
2017-01-20T04:12:27.245Z,60.89
2017-01-20T04:12:53.341Z,61.18
2017-01-20T04:13:19.435Z,60.41
2017-01-20T04:13:45.532Z,60.61
2017-01-20T04:14:11.638Z,60.51
2017-01-20T04:14:37.741Z,60.51
2017-01-20T04:15:03.829Z,60.41
2017-01-20T04:15:29.930Z,60.41
2017-01-20T04:15:56.036Z,60.51
2017-01-20T04:16:22.129Z,60.41
2017-01-20T04:16:48.227Z,60.03
2017-01-20T04:17:14.330Z,60.13
2017-01-20T04:17:40.418Z,60.51
2017-01-20T04:18:06.519Z,60.51
2017-01-20T04:18:32.614Z,60.22
2017-01-20T04:18:58.719Z,60.61
2017-01-20T04:19:24.819Z,60.51
2017-01-20T04:19:50.910Z,60.51
2017-01-20T04:20:17.004Z,60.41
2017-01-20T04:20:43.117Z,60.13
2017-01-20T04:21:09.204Z,60.51
2017-01-20T04:21:35.308Z,60.41
2017-01-20T04:22:01.407Z,60.03
2017-01-20T04:22:27.497Z,60.61
2017-01-20T04:22:53.584Z,60.32
2017-01-20T04:23:19.692Z,60.22
2017-01-20T04:23:45.789Z,60.41
2017-01-20T04:24:11.885Z,60.51
2017-01-20T04:24:37.982Z,60.41
2017-01-20T04:25:04.079Z,60.51
2017-01-20T04:25:30.187Z,60.41
2017-01-20T04:25:56.276Z,60.51
2017-01-20T04:26:22.360Z,60.61
2017-01-20T04:26:48.472Z,60.8
2017-01-20T04:27:14.570Z,60.61
2017-01-20T04:27:40.659Z,60.61
2017-01-20T04:28:06.775Z,60.7
2017-01-20T04:28:32.865Z,60.32
2017-01-20T04:28:58.955Z,60.41
2017-01-20T04:29:25.065Z,60.22
2017-01-20T04:29:51.159Z,61.08
2017-01-20T04:30:17.264Z,61.18
2017-01-20T04:30:43.360Z,60.8
2017-01-20T04:31:09.446Z,60.89
2017-01-20T04:31:35.559Z,60.51
2017-01-20T04:32:01.655Z,60.51
2017-01-20T04:32:27.748Z,60.61
2017-01-20T04:32:53.848Z,60.7
2017-01-20T04:33:19.950Z,60.51
2017-01-20T04:33:46.041Z,60.51
2017-01-20T04:34:12.136Z,61.08
2017-01-20T04:34:38.243Z,60.7
2017-01-20T04:35:04.336Z,60.32
2017-01-20T04:35:30.435Z,60.22
2017-01-20T04:35:56.541Z,60.22
2017-01-20T04:36:22.635Z,60.22
2017-01-20T04:36:48.724Z,60.51
2017-01-20T04:37:14.840Z,60.13
2017-01-20T04:37:40.940Z,60.22
2017-01-20T04:38:07.027Z,59.84
2017-01-20T04:38:33.132Z,60.03
2017-01-20T04:38:59.233Z,59.75
2017-01-20T04:39:25.324Z,59.28
2017-01-20T04:39:51.425Z,59.38
2017-01-20T04:40:17.535Z,59.38
2017-01-20T04:40:43.627Z,59.28
2017-01-20T04:41:09.718Z,59.56
2017-01-20T04:41:35.811Z,59.84
2017-01-20T04:42:01.914Z,59.47
2017-01-20T04:42:28.019Z,58.9
2017-01-20T04:42:54.105Z,59.09
2017-01-20T04:43:20.206Z,58.9
2017-01-20T04:43:46.317Z,58.81
2017-01-20T04:44:12.406Z,58.71
2017-01-20T04:44:38.510Z,59.28
2017-01-20T04:45:04.623Z,59.19
2017-01-20T04:45:30.720Z,58.71
2017-01-20T04:45:56.810Z,59.19
2017-01-20T04:46:22.911Z,58.71
2017-01-20T04:46:49.011Z,58.71
2017-01-20T04:47:15.118Z,58.71
2017-01-20T04:47:41.208Z,58.62
2017-01-20T04:48:07.310Z,58.81
2017-01-20T04:48:33.424Z,58.81
2017-01-20T04:48:59.506Z,58.9
2017-01-20T04:49:25.605Z,58.71
2017-01-20T04:49:51.715Z,58.71
2017-01-20T04:50:17.813Z,58.05
2017-01-20T04:50:43.898Z,58.33
2017-01-20T04:51:10.003Z,57.95
2017-01-20T04:51:36.102Z,57.76
2017-01-20T04:52:02.202Z,57.86
2017-01-20T04:52:28.294Z,57.57
2017-01-20T04:52:54.393Z,57.2
2017-01-20T04:53:20.503Z,56.91
2017-01-20T04:53:46.592Z,57.76
2017-01-20T04:54:12.674Z,58.14
2017-01-20T04:54:38.786Z,58.14
2017-01-20T04:55:04.877Z,58.33
2017-01-20T04:55:30.964Z,58.81
2017-01-20T04:55:57.075Z,58.14
2017-01-20T04:56:23.180Z,58.24
2017-01-20T04:56:49.268Z,58.05
2017-01-20T04:57:15.371Z,57.76
2017-01-20T04:57:41.478Z,57.76
2017-01-20T04:58:07.568Z,58.05
2017-01-20T04:58:33.669Z,57.57
2017-01-20T04:58:59.777Z,57.57
2017-01-20T04:59:25.869Z,57.76
2017-01-20T04:59:51.965Z,58.24
2017-01-20T05:00:18.071Z,58.24
2017-01-20T05:00:44.165Z,58.9
2017-01-20T05:01:10.259Z,58.24
2017-01-20T05:01:36.367Z,58.14
2017-01-20T05:02:02.466Z,58.62
2017-01-20T05:02:28.555Z,58.62
2017-01-20T05:02:54.660Z,57.86
2017-01-20T05:03:20.756Z,57.86
2017-01-20T05:03:46.858Z,57.57
2017-01-20T05:04:12.956Z,57.67
2017-01-20T05:04:39.042Z,57.2
2017-01-20T05:05:05.158Z,57.01
2017-01-20T05:05:31.251Z,57.01
2017-01-20T05:05:57.346Z,57.01
2017-01-20T05:06:23.449Z,57.01
2017-01-20T05:06:49.545Z,57.1
2017-01-20T05:07:15.641Z,57.1
2017-01-20T05:07:41.747Z,57.01
2017-01-20T05:08:07.852Z,56.82
2017-01-20T05:08:33.949Z,57.2
2017-01-20T05:09:00.042Z,57.48
2017-01-20T05:09:26.137Z,56.53
2017-01-20T05:09:52.245Z,56.15
2017-01-20T05:10:18.349Z,56.63
2017-01-20T05:10:44.435Z,56.53
2017-01-20T05:11:10.535Z,56.72
2017-01-20T05:11:36.641Z,56.72
2017-01-20T05:12:02.726Z,56.53
2017-01-20T05:12:28.826Z,56.72
2017-01-20T05:12:54.929Z,56.72
2017-01-20T05:13:21.020Z,56.53
2017-01-20T05:13:47.114Z,56.82
2017-01-20T05:14:13.212Z,56.91
2017-01-20T05:14:39.316Z,57.01
2017-01-20T05:15:05.417Z,56.72
2017-01-20T05:15:31.507Z,55.96
2017-01-20T05:15:57.606Z,55.77
2017-01-20T05:16:23.717Z,55.87
2017-01-20T05:16:49.805Z,55.75
2017-01-20T05:17:15.902Z,56.25
2017-01-20T05:17:42.009Z,55.49
2017-01-20T05:18:08.106Z,55.4
2017-01-20T05:18:34.198Z,55.46
2017-01-20T05:19:00.313Z,55.37
2017-01-20T05:19:26.410Z,55.37
2017-01-20T05:19:52.501Z,55.46
2017-01-20T05:20:18.607Z,54.99
2017-01-20T05:20:44.705Z,55.18
2017-01-20T05:21:10.795Z,54.9
2017-01-20T05:21:36.898Z,55.65
2017-01-20T05:22:03.010Z,55.46
2017-01-20T05:22:29.092Z,55.56
2017-01-20T05:22:55.193Z,55.84
2017-01-20T05:23:21.305Z,55.46
2017-01-20T05:23:47.396Z,55.75
2017-01-20T05:24:13.495Z,55.27
2017-01-20T05:24:39.606Z,56.32
2017-01-20T05:25:05.692Z,56.22
2017-01-20T05:25:31.794Z,56.7
2017-01-20T05:25:57.882Z,55.94
2017-01-20T05:26:23.983Z,55.75
2017-01-20T05:26:50.095Z,55.46
2017-01-20T05:27:16.179Z,55.27
2017-01-20T05:27:42.275Z,55.27
2017-01-20T05:28:08.389Z,55.37
2017-01-20T05:28:34.482Z,55.18
2017-01-20T05:29:00.569Z,55.27
2017-01-20T05:29:26.680Z,55.27
2017-01-20T05:29:52.774Z,55.75
2017-01-20T05:30:18.864Z,56.22
2017-01-20T05:30:44.969Z,55.84
2017-01-20T05:31:11.070Z,56.03
2017-01-20T05:31:37.175Z,55.94
2017-01-20T05:32:03.267Z,55.75
2017-01-20T05:32:29.355Z,55.18
2017-01-20T05:32:55.467Z,55.56
2017-01-20T05:33:21.571Z,55.37
2017-01-20T05:33:47.660Z,55.84
2017-01-20T05:34:13.766Z,55.75
2017-01-20T05:34:39.864Z,55.56
2017-01-20T05:35:05.954Z,55.84
2017-01-20T05:35:32.062Z,55.94
2017-01-20T05:35:58.172Z,57.07
2017-01-20T05:36:24.260Z,56.79
2017-01-20T05:36:50.353Z,56.41
2017-01-20T05:37:16.451Z,55.84